Main page
METAR-TAF:

METAR-TAF

Airports :

Southampton Airport

Southampton, England

latitude: 50-54N, longitude: 001-24W, elevation: 9 m

Current weather observation

The report was made 20 minutes ago, at 17:20 UTC
Wind 4 kt from the East/Southeast, varying between East and South/Southeast
Temperature 7°C
Humidity 93%
Pressure 1016 hPa
Visibility: 3500 m
Broken clouds at a height of 500 ft
mist

METAR: EGHI 251720Z 12004KT 080V150 3500 BR BKN005 07/06 Q1016

Time: 17:40 (17:40 UTC)

Forecast

The report was made 43 minutes ago, at 16:57 UTC
Forecast valid from 25 at 18 UTC to 25 at 23 UTC
Wind 6 kt from the South/Southeast
Visibility: 6000 m
Scattered clouds at a height of 600 ft
Broken clouds at a height of 1000 ft
Temporary
from 25 at 18 UTC to 25 at 23 UTC
Visibility: 3000 m
Broken clouds at a height of 600 ft
mist

TAF: EGHI 251657Z 2518/2523 15006KT 6000 SCT006 BKN010 TEMPO 2518/2523 3000 BR BKN006

Weather observations and forecasts of more than 4000 airports (METAR and TAF reports).

The available stations are represented by yellow and red dots on the map.

Hover mouse over dot to see the name of the station.

Then click to see weather observations and forecasts.

To change the map : click on the green buttons with a black cross to zoom in, on the green button with a dash to zoom out, or on the green arrows for adjacent maps.


METAR-TAF: